首页
METAR-TAF:

METAR-TAF

机场 :

Riverton Regional Airport

Riverton, 怀俄明州, 美国

纬度: 43-03-43N, 经度: 108-26-47W, 海拔: 1684米

当前天气观测

该预报发布于17分钟前的03:53 UTC
风速10节,风向西转西南
温度 -6°C
湿度 68%
气压 1015 hPa
能見度: 16.1公里
天空无云

METAR: KRIW 120353Z AUTO 25010KT 10SM CLR M06/M11 A2996 RMK AO2 SLP208 T10611106

时间: 21:10 (04:10 UTC)

预报

该预报发布于4小时和45分钟前的23:25 UTC
预报有效从12日的 00点(UTC)到 12日的 24点(UTC)
风速7节,风向西
能見度: 10公里
散云层高于9000英尺
从 12日的 0200点(UTC)
风速7节,风向西转西北
能見度: 10公里
散云层高于15000英尺
从 12日的 1400点(UTC)
风速9节,风向西
能見度: 10公里
散云层高于6000英尺
多云层高于15000英尺
从 12日的 2000点(UTC)
风速12节,风向西,有时为18节阵风
能見度: 10公里
多云层高于6000英尺
多云层高于15000英尺

TAF: KRIW 112325Z 1200/1224 26007KT P6SM SCT090 FM120200 29007KT P6SM SCT150 FM121400 27009KT P6SM SCT060 BKN150 FM122000 28012G18KT P6SM BKN060 BKN150

超过4000个机场的气象观测和天气预报(METAR&TAF报告)。

可查询的气象台以黄色和红色小点在地图上表示。

将鼠标移到小点上方,可查看气象台名称。

然后点击查看天气观测和预报。

如需切换地图:点击带黑十字的绿色按钮放大地图;点击带横线的绿色按钮缩小地图;或者点击绿色箭头查看邻近地区的地图。


METAR-TAF: